createdAt,value
2018-05-14T00:02:20.022Z,57.75
2018-05-14T00:04:47.479Z,60.10
2018-05-14T00:07:14.958Z,57.67
2018-05-14T00:09:42.416Z,59.25
2018-05-14T00:12:09.903Z,52.55
2018-05-14T00:14:37.380Z,61.42
2018-05-14T00:17:04.891Z,56.83
2018-05-14T00:19:32.300Z,56.05
2018-05-14T00:21:59.746Z,59.25
2018-05-14T00:24:27.259Z,52.58
2018-05-14T00:26:54.704Z,55.67
2018-05-14T00:29:22.175Z,49.38
2018-05-14T00:31:49.617Z,50.33
2018-05-14T00:34:17.074Z,51.30
2018-05-14T00:36:44.522Z,46.28
2018-05-14T00:39:11.985Z,51.80
2018-05-14T00:41:39.427Z,48.15
2018-05-14T00:44:07.655Z,51.22
2018-05-14T00:46:35.194Z,46.05
2018-05-14T00:49:02.664Z,45.58
2018-05-14T00:51:30.126Z,43.42
2018-05-14T00:53:57.602Z,45.60
2018-05-14T00:56:25.069Z,43.85
2018-05-14T00:58:52.495Z,51.35
2018-05-14T01:01:19.965Z,50.38
2018-05-14T01:03:47.431Z,52.28
2018-05-14T01:06:14.891Z,50.17
2018-05-14T01:08:42.352Z,49.60
2018-05-14T01:11:09.802Z,46.42
2018-05-14T01:13:37.259Z,47.95
2018-05-14T01:16:04.737Z,50.33
2018-05-14T01:18:32.971Z,47.15
2018-05-14T01:21:01.200Z,50.50
2018-05-14T01:23:29.414Z,46.63
2018-05-14T01:25:56.879Z,47.35
2018-05-14T01:28:25.113Z,44.10
2018-05-14T01:30:52.564Z,47.47
2018-05-14T01:33:20.016Z,44.80
2018-05-14T01:35:47.474Z,40.72
2018-05-14T01:38:15.698Z,45.90
2018-05-14T01:40:43.178Z,44.30
2018-05-14T01:43:10.653Z,45.40
2018-05-14T01:45:38.943Z,43.83
2018-05-14T01:48:07.170Z,41.70
2018-05-14T01:50:34.625Z,44.13
2018-05-14T01:53:02.079Z,40.88
2018-05-14T01:55:29.539Z,42.83
2018-05-14T01:57:56.966Z,42.42
2018-05-14T02:00:24.426Z,44.30
2018-05-14T02:02:51.883Z,44.38
2018-05-14T02:05:19.342Z,38.97
2018-05-14T02:07:46.822Z,42.80
2018-05-14T02:10:14.356Z,44.78
2018-05-14T02:12:41.790Z,39.67
2018-05-14T02:15:09.265Z,41.85
2018-05-14T02:17:36.716Z,43.80
2018-05-14T02:20:04.171Z,43.72
2018-05-14T02:22:31.627Z,42.65
2018-05-14T02:25:01.921Z,40.67
2018-05-14T02:27:30.162Z,41.37
2018-05-14T02:29:57.599Z,43.15
2018-05-14T02:32:25.063Z,40.20
2018-05-14T02:34:52.524Z,40.83
2018-05-14T02:37:19.995Z,41.05
2018-05-14T02:39:47.471Z,40.50
2018-05-14T02:42:14.933Z,39.00
2018-05-14T02:44:43.177Z,38.40
2018-05-14T02:47:10.629Z,39.10
2018-05-14T02:49:38.855Z,38.92
2018-05-14T02:52:07.088Z,40.63
2018-05-14T02:54:34.537Z,37.83
2018-05-14T02:57:02.026Z,37.53
2018-05-14T02:59:29.475Z,38.03
2018-05-14T03:01:56.975Z,39.78
2018-05-14T03:04:24.431Z,39.38
2018-05-14T03:06:51.890Z,40.35
2018-05-14T03:09:19.334Z,39.20
2018-05-14T03:11:47.225Z,38.40
2018-05-14T03:14:14.674Z,36.97
2018-05-14T03:16:42.172Z,38.78
2018-05-14T03:19:09.581Z,36.92
2018-05-14T03:21:37.038Z,35.60
2018-05-14T03:24:04.496Z,39.70
2018-05-14T03:26:31.987Z,39.05
2018-05-14T03:28:59.521Z,38.03
2018-05-14T03:31:27.006Z,38.30
2018-05-14T03:33:54.459Z,39.67
2018-05-14T03:36:21.954Z,37.53
2018-05-14T03:38:50.168Z,38.63
2018-05-14T03:41:17.622Z,39.58
2018-05-14T03:43:45.082Z,40.45
2018-05-14T03:46:12.947Z,38.40
2018-05-14T03:48:40.396Z,37.25
2018-05-14T03:51:07.842Z,38.80
2018-05-14T03:53:35.302Z,41.03
2018-05-14T03:56:02.771Z,38.17
2018-05-14T03:58:42.186Z,40.30
2018-05-14T04:01:14.213Z,40.00
2018-05-14T04:03:53.446Z,39.17
2018-05-14T04:06:35.970Z,36.85
2018-05-14T04:09:06.282Z,37.80
2018-05-14T04:11:34.572Z,39.92
2018-05-14T04:14:02.019Z,39.75
2018-05-14T04:16:29.544Z,38.15
2018-05-14T04:18:57.714Z,39.50
2018-05-14T04:21:25.169Z,39.22
2018-05-14T04:23:52.625Z,39.53
2018-05-14T04:26:20.093Z,37.97
2018-05-14T04:28:47.537Z,38.10
2018-05-14T04:31:15.098Z,39.58
2018-05-14T04:33:42.525Z,37.85
2018-05-14T04:36:10.733Z,35.92
2018-05-14T04:38:38.191Z,39.55
2018-05-14T04:41:05.635Z,40.22
2018-05-14T04:43:33.197Z,37.83
2018-05-14T04:46:00.639Z,37.55
2018-05-14T04:48:28.095Z,39.05
2018-05-14T04:50:55.538Z,39.08
2018-05-14T04:53:23.759Z,41.13
2018-05-14T04:55:51.210Z,38.90
2018-05-14T04:58:18.680Z,37.90
2018-05-14T05:00:46.140Z,39.28
2018-05-14T05:03:13.610Z,38.78
2018-05-14T05:05:41.096Z,38.70
2018-05-14T05:08:09.314Z,36.45
2018-05-14T05:12:51.282Z,35.58
2018-05-14T05:15:19.532Z,36.58
2018-05-14T05:17:47.056Z,34.88
2018-05-14T05:20:14.503Z,34.10
2018-05-14T05:22:41.961Z,36.28
2018-05-14T05:25:09.412Z,34.65
2018-05-14T05:27:36.869Z,34.35
2018-05-14T05:30:04.311Z,35.33
2018-05-14T05:32:32.530Z,35.78
2018-05-14T05:34:59.987Z,35.78
2018-05-14T05:37:28.198Z,36.60
2018-05-14T05:39:56.414Z,36.58
2018-05-14T05:42:23.884Z,34.17
2018-05-14T05:44:51.340Z,35.47
2018-05-14T05:47:18.799Z,31.83
2018-05-14T05:49:46.278Z,34.65
2018-05-14T05:52:13.725Z,34.58
2018-05-14T05:54:41.175Z,34.15
2018-05-14T05:57:08.631Z,32.90
2018-05-14T05:59:36.092Z,34.70
2018-05-14T06:02:03.566Z,34.10
2018-05-14T06:04:31.026Z,32.58
2018-05-14T06:06:58.461Z,32.30
2018-05-14T06:09:25.952Z,35.40
2018-05-14T06:11:53.377Z,34.33
2018-05-14T06:14:20.830Z,34.20
2018-05-14T06:16:48.286Z,33.75
2018-05-14T06:19:15.741Z,34.03
2018-05-14T06:21:43.186Z,32.83
2018-05-14T06:24:10.655Z,36.28
2018-05-14T06:26:38.111Z,33.88
2018-05-14T06:29:05.570Z,33.15
2018-05-14T06:31:33.029Z,33.92
2018-05-14T06:34:01.264Z,34.63
2018-05-14T06:36:28.761Z,34.67
2018-05-14T06:38:56.275Z,34.50
2018-05-14T06:41:24.488Z,32.15
2018-05-14T06:43:51.955Z,33.70
2018-05-14T06:46:20.161Z,32.42
2018-05-14T06:48:48.377Z,33.20
2018-05-14T06:51:15.830Z,32.13
2018-05-14T06:53:43.284Z,32.03
2018-05-14T06:56:10.774Z,32.42
2018-05-14T06:58:38.238Z,31.65
2018-05-14T07:01:05.792Z,33.47
2018-05-14T07:03:33.175Z,33.72
2018-05-14T07:06:01.388Z,33.03
2018-05-14T07:08:28.825Z,34.50
2018-05-14T07:10:56.284Z,31.40
2018-05-14T07:13:23.734Z,33.33
2018-05-14T07:15:51.217Z,30.95
2018-05-14T07:18:18.667Z,31.80
2018-05-14T07:20:46.109Z,30.70
2018-05-14T07:23:14.323Z,30.77
2018-05-14T07:25:41.762Z,30.75
2018-05-14T07:28:09.242Z,29.08
2018-05-14T07:30:36.716Z,29.25
2018-05-14T07:33:04.195Z,28.23
2018-05-14T07:35:31.634Z,26.42
2018-05-14T07:37:59.104Z,26.95
2018-05-14T07:40:26.554Z,26.92
2018-05-14T07:42:53.991Z,28.60
2018-05-14T07:45:21.527Z,25.80
2018-05-14T07:47:48.949Z,24.27
2018-05-14T07:50:17.177Z,25.45
2018-05-14T07:52:44.617Z,24.50
2018-05-14T07:55:12.098Z,24.50
2018-05-14T07:57:39.555Z,24.98
2018-05-14T08:00:07.006Z,22.92
2018-05-14T08:02:35.235Z,25.08
2018-05-14T08:05:02.686Z,24.23
2018-05-14T08:07:30.909Z,21.92
2018-05-14T08:09:59.126Z,23.30
2018-05-14T08:12:27.352Z,23.90
2018-05-14T08:14:54.815Z,23.15
2018-05-14T08:17:22.269Z,23.33
2018-05-14T08:19:49.741Z,22.13
2018-05-14T08:22:17.187Z,21.08
2018-05-14T08:24:44.645Z,21.62
2018-05-14T08:27:12.101Z,22.55
2018-05-14T08:29:39.608Z,21.55
2018-05-14T08:32:07.034Z,21.27
2018-05-14T08:34:34.487Z,20.12
2018-05-14T08:37:01.934Z,19.67
2018-05-14T08:39:29.385Z,19.70
2018-05-14T08:41:56.839Z,20.33
2018-05-14T08:44:24.285Z,21.30
2018-05-14T08:46:51.832Z,21.67
2018-05-14T08:49:19.313Z,18.37
2018-05-14T08:51:46.793Z,18.05
2018-05-14T08:54:14.338Z,18.45
2018-05-14T08:56:41.715Z,17.98
2018-05-14T08:59:09.178Z,18.20
2018-05-14T09:01:37.390Z,18.42
2018-05-14T09:04:04.862Z,16.58
2018-05-14T09:06:32.302Z,18.65
2018-05-14T09:08:59.749Z,17.62
2018-05-14T09:11:27.212Z,15.00
2018-05-14T09:13:54.680Z,13.98
2018-05-14T09:16:22.187Z,14.43
2018-05-14T09:18:49.618Z,14.30
2018-05-14T09:21:17.069Z,13.15
2018-05-14T09:23:44.516Z,14.20
2018-05-14T09:26:12.471Z,14.32
2018-05-14T09:28:39.898Z,13.68
2018-05-14T09:31:08.118Z,14.55
2018-05-14T09:33:35.582Z,15.77
2018-05-14T09:36:03.042Z,14.73
2018-05-14T09:38:30.481Z,14.38
2018-05-14T09:40:57.978Z,12.52
2018-05-14T09:43:25.439Z,12.75
2018-05-14T09:45:52.881Z,12.35
2018-05-14T09:48:20.321Z,11.45
2018-05-14T09:50:47.787Z,12.73
2018-05-14T09:53:15.237Z,11.77
2018-05-14T09:55:42.703Z,10.98
2018-05-14T09:58:10.149Z,12.48
2018-05-14T10:00:37.619Z,11.43
2018-05-14T10:03:05.205Z,10.95
2018-05-14T10:05:32.531Z,11.55
2018-05-14T10:08:00.562Z,10.55
2018-05-14T10:10:28.013Z,10.55
2018-05-14T10:12:55.463Z,10.98
2018-05-14T10:15:23.673Z,9.88
2018-05-14T10:17:51.125Z,10.40
2018-05-14T10:20:18.575Z,9.82
2018-05-14T10:22:46.022Z,10.10
2018-05-14T10:25:13.914Z,9.05
2018-05-14T10:27:41.366Z,9.65
2018-05-14T10:30:08.830Z,9.52
2018-05-14T10:32:36.330Z,9.55
2018-05-14T10:35:04.563Z,9.38
2018-05-14T10:37:32.035Z,9.13
2018-05-14T10:40:00.269Z,8.63
2018-05-14T10:42:27.713Z,9.38
2018-05-14T10:44:55.171Z,9.13
2018-05-14T10:47:22.606Z,9.30
2018-05-14T10:49:50.859Z,8.80
2018-05-14T10:52:18.312Z,7.97
2018-05-14T10:54:45.756Z,8.23
2018-05-14T10:57:13.222Z,7.82
2018-05-14T10:59:40.663Z,7.53
2018-05-14T11:02:08.121Z,8.00
2018-05-14T11:04:35.565Z,7.25
2018-05-14T11:07:03.025Z,7.18
2018-05-14T11:09:30.462Z,6.65
2018-05-14T11:11:57.914Z,6.43
2018-05-14T11:14:25.360Z,6.60
2018-05-14T11:16:53.582Z,5.90
2018-05-14T11:19:21.035Z,6.22
2018-05-14T11:21:48.494Z,6.65
2018-05-14T11:24:15.951Z,6.07
2018-05-14T11:26:43.430Z,5.60
2018-05-14T11:29:10.856Z,5.05
2018-05-14T11:31:39.069Z,4.85
2018-05-14T11:34:07.278Z,5.30
2018-05-14T11:36:34.732Z,5.37
2018-05-14T11:39:02.164Z,5.28
2018-05-14T11:41:30.371Z,5.20
2018-05-14T11:43:57.805Z,4.85
2018-05-14T11:46:26.032Z,4.72
2018-05-14T11:48:53.488Z,4.85
2018-05-14T11:51:20.958Z,4.72
2018-05-14T11:53:48.407Z,4.90
2018-05-14T11:56:15.868Z,3.87
2018-05-14T11:58:43.308Z,4.10
2018-05-14T12:01:11.522Z,4.25
2018-05-14T12:03:39.059Z,4.30
2018-05-14T12:06:07.276Z,4.37
2018-05-14T12:08:35.506Z,4.20
2018-05-14T12:11:02.956Z,4.15
2018-05-14T12:13:30.409Z,4.80
2018-05-14T12:15:57.978Z,4.70
2018-05-14T12:18:25.338Z,4.00
2018-05-14T12:20:52.914Z,4.20
2018-05-14T12:23:20.390Z,4.00
2018-05-14T12:25:48.610Z,4.57
2018-05-14T12:28:16.052Z,4.40
2018-05-14T12:30:43.495Z,4.25
2018-05-14T12:33:10.960Z,4.50
2018-05-14T12:35:38.398Z,4.28
2018-05-14T12:38:05.854Z,4.57
2018-05-14T12:40:34.080Z,4.05
2018-05-14T12:43:01.529Z,3.70
2018-05-14T12:45:29.066Z,3.87
2018-05-14T12:47:56.527Z,3.50
2018-05-14T12:50:23.977Z,4.05
2018-05-14T12:52:51.452Z,4.05
2018-05-14T12:55:18.879Z,3.55
2018-05-14T12:57:46.345Z,3.85
2018-05-14T13:00:13.775Z,3.75
2018-05-14T13:02:42.005Z,3.72
2018-05-14T13:05:09.480Z,3.50
2018-05-14T13:07:36.923Z,3.28
2018-05-14T13:10:04.370Z,3.40
2018-05-14T13:12:31.839Z,3.25
2018-05-14T13:14:59.292Z,3.42
2018-05-14T13:17:26.755Z,3.35
2018-05-14T13:19:54.197Z,4.03
2018-05-14T13:22:21.656Z,3.28
2018-05-14T13:24:49.094Z,3.20
2018-05-14T13:27:16.545Z,3.62
2018-05-14T13:29:43.983Z,3.30
2018-05-14T13:32:11.537Z,3.70
2018-05-14T13:34:38.907Z,3.10
2018-05-14T13:37:06.414Z,2.87
2018-05-14T13:39:34.390Z,2.85
2018-05-14T13:42:01.836Z,2.83
2018-05-14T13:44:29.298Z,3.10
2018-05-14T13:46:56.735Z,2.83
2018-05-14T13:49:24.195Z,2.83
2018-05-14T13:51:51.647Z,2.45
2018-05-14T13:54:19.102Z,2.58
2018-05-14T13:56:46.539Z,2.47
2018-05-14T13:59:13.995Z,3.55
2018-05-14T14:01:41.430Z,2.90
2018-05-14T14:04:08.903Z,2.85
2018-05-14T14:06:36.345Z,2.60
2018-05-14T14:09:04.564Z,3.10
2018-05-14T14:11:32.042Z,3.30
2018-05-14T14:13:59.490Z,2.78
2018-05-14T14:16:26.951Z,3.22
2018-05-14T14:18:54.402Z,2.78
2018-05-14T14:21:21.864Z,3.20
2018-05-14T14:23:49.695Z,2.60
2018-05-14T14:26:16.763Z,2.75
2018-05-14T14:28:44.221Z,2.67
2018-05-14T14:31:11.698Z,3.05
2018-05-14T14:33:39.150Z,2.58
2018-05-14T14:36:06.661Z,2.72
2018-05-14T14:38:34.053Z,2.85
2018-05-14T14:41:01.512Z,2.42
2018-05-14T14:43:28.958Z,2.85
2018-05-14T14:45:56.432Z,3.20
2018-05-14T14:48:23.900Z,2.83
2018-05-14T14:50:51.365Z,2.92
2018-05-14T14:53:18.865Z,3.03
2018-05-14T14:55:46.352Z,3.05
2018-05-14T14:58:14.129Z,2.87
2018-05-14T15:00:41.544Z,2.70
2018-05-14T15:03:09.023Z,3.03
2018-05-14T15:05:36.528Z,2.92
2018-05-14T15:08:04.763Z,2.70
2018-05-14T15:10:32.321Z,3.00
2018-05-14T15:13:00.159Z,2.85
2018-05-14T15:15:27.611Z,2.58
2018-05-14T15:17:55.062Z,3.28
2018-05-14T15:20:22.520Z,3.00
2018-05-14T15:22:49.970Z,3.20
2018-05-14T15:25:17.441Z,2.75
2018-05-14T15:27:44.879Z,2.83
2018-05-14T15:30:12.337Z,2.97
2018-05-14T15:32:39.789Z,3.00
2018-05-14T15:35:08.008Z,3.20
2018-05-14T15:37:35.447Z,3.28
2018-05-14T15:40:02.893Z,2.95
2018-05-14T15:42:30.342Z,2.70
2018-05-14T15:44:57.862Z,2.85
2018-05-14T15:47:25.439Z,3.08
2018-05-14T15:49:53.009Z,3.40
2018-05-14T15:52:21.111Z,2.85
2018-05-14T15:54:48.570Z,2.50
2018-05-14T15:57:16.051Z,2.97
2018-05-14T15:59:43.512Z,3.20
2018-05-14T16:02:10.968Z,3.00
2018-05-14T16:04:38.410Z,2.92
2018-05-14T16:07:05.867Z,2.87
2018-05-14T16:09:34.124Z,3.28
2018-05-14T16:12:01.579Z,2.80
2018-05-14T16:14:29.041Z,3.28
2018-05-14T16:16:56.545Z,3.55
2018-05-14T16:19:23.990Z,3.37
2018-05-14T16:21:51.464Z,3.30
2018-05-14T16:24:18.906Z,3.05
2018-05-14T16:26:46.364Z,3.20
2018-05-14T16:29:13.827Z,3.03
2018-05-14T16:31:41.290Z,3.35
2018-05-14T16:34:08.743Z,3.33
2018-05-14T16:36:36.183Z,3.15
2018-05-14T16:39:03.653Z,3.72
2018-05-14T16:41:31.100Z,3.10
2018-05-14T16:43:58.565Z,3.15
2018-05-14T16:46:26.015Z,3.08
2018-05-14T16:48:53.462Z,3.78
2018-05-14T16:51:20.926Z,3.40
2018-05-14T16:53:48.362Z,3.55
2018-05-14T16:56:15.814Z,3.70
2018-05-14T16:58:43.253Z,3.12
2018-05-14T17:01:10.743Z,3.08
2018-05-14T17:03:38.193Z,3.22
2018-05-14T17:06:05.631Z,3.83
2018-05-14T17:08:33.086Z,3.83
2018-05-14T17:11:00.543Z,3.95
2018-05-14T17:13:28.017Z,3.65
2018-05-14T17:15:55.531Z,3.95
2018-05-14T17:18:23.731Z,3.30
2018-05-14T17:20:51.173Z,3.70
2018-05-14T17:23:18.627Z,3.35
2018-05-14T17:25:46.131Z,3.53
2018-05-14T17:28:13.601Z,3.72
2018-05-14T17:30:41.067Z,3.35
2018-05-14T17:33:08.513Z,3.75
2018-05-14T17:35:35.968Z,4.15
2018-05-14T17:38:03.469Z,3.75
2018-05-14T17:40:30.936Z,3.92
2018-05-14T17:42:58.432Z,3.75
2018-05-14T17:48:29.625Z,3.62
2018-05-14T17:50:57.868Z,3.87
2018-05-14T17:53:25.322Z,4.28
2018-05-14T17:55:52.787Z,4.00
2018-05-14T17:58:20.265Z,4.28
2018-05-14T18:00:48.526Z,4.22
2018-05-14T18:03:16.031Z,3.47
2018-05-14T18:05:44.258Z,3.92
2018-05-14T18:08:11.691Z,4.05
2018-05-14T18:10:39.196Z,4.07
2018-05-14T18:13:06.595Z,4.43
2018-05-14T18:15:34.097Z,4.00
2018-05-14T18:18:06.466Z,3.87
2018-05-14T18:20:37.689Z,4.18
2018-05-14T18:23:05.124Z,4.12
2018-05-14T18:25:38.201Z,4.18
2018-05-14T18:28:08.587Z,4.20
2018-05-14T18:30:39.044Z,3.65
2018-05-14T18:33:11.107Z,4.15
2018-05-14T18:35:54.232Z,3.83
2018-05-14T18:38:22.445Z,3.78
2018-05-14T18:40:49.906Z,4.05
2018-05-14T18:43:17.407Z,3.90
2018-05-14T18:45:45.647Z,3.85
2018-05-14T18:48:13.106Z,3.92
2018-05-14T18:50:40.555Z,3.90
2018-05-14T18:53:08.041Z,3.97
2018-05-14T18:55:35.497Z,4.05
2018-05-14T18:58:02.969Z,3.17
2018-05-14T19:00:30.441Z,3.75
2018-05-14T19:02:58.690Z,3.78
2018-05-14T19:05:26.137Z,3.83
2018-05-14T19:07:53.588Z,4.97
2018-05-14T19:10:27.487Z,4.03
2018-05-14T19:12:54.942Z,4.35
2018-05-14T19:15:28.216Z,4.22
2018-05-14T19:17:59.644Z,4.00
2018-05-14T19:20:27.143Z,4.00
2018-05-14T19:23:00.342Z,4.82
2018-05-14T19:25:27.949Z,4.97
2018-05-14T19:28:01.863Z,4.53
2018-05-14T19:30:29.348Z,3.70
2018-05-14T19:32:56.819Z,4.30
2018-05-14T19:35:30.289Z,4.10
2018-05-14T19:37:57.753Z,4.10
2018-05-14T19:40:30.946Z,4.10
2018-05-14T19:42:58.396Z,4.90
2018-05-14T19:45:25.863Z,3.83
2018-05-14T19:47:53.307Z,4.50
2018-05-14T19:50:20.761Z,4.80
2018-05-14T19:52:48.236Z,4.62
2018-05-14T19:55:15.681Z,4.57
2018-05-14T19:57:43.154Z,4.32
2018-05-14T20:00:10.639Z,3.97
2018-05-14T20:02:39.074Z,4.62
2018-05-14T20:05:06.670Z,4.18
2018-05-14T20:07:34.934Z,4.30
2018-05-14T20:10:02.431Z,4.10
2018-05-14T20:12:30.668Z,3.80
2018-05-14T20:14:58.161Z,3.85
2018-05-14T20:17:25.617Z,4.12
2018-05-14T20:19:53.108Z,4.10
2018-05-14T20:22:20.601Z,3.85
2018-05-14T20:24:48.126Z,4.70
2018-05-14T20:27:15.603Z,4.30
2018-05-14T20:29:43.076Z,4.47
2018-05-14T20:32:10.539Z,4.60
2018-05-14T20:34:38.004Z,4.10
2018-05-14T20:37:05.531Z,4.50
2018-05-14T20:39:32.925Z,4.37
2018-05-14T20:42:00.378Z,3.97
2018-05-14T20:44:27.829Z,3.85
2018-05-14T20:46:55.292Z,4.10
2018-05-14T20:49:22.766Z,3.60
2018-05-14T20:51:50.990Z,3.35
2018-05-14T20:54:18.649Z,3.85
2018-05-14T20:56:46.140Z,4.60
2018-05-14T20:59:13.584Z,4.53
2018-05-14T21:01:41.052Z,3.80
2018-05-14T21:04:09.323Z,4.50
2018-05-14T21:06:36.774Z,3.50
2018-05-14T21:09:06.186Z,3.60
2018-05-14T21:11:33.682Z,3.90
2018-05-14T21:14:01.116Z,3.87
2018-05-14T21:16:29.338Z,3.58
2018-05-14T21:18:56.811Z,3.45
2018-05-14T21:21:24.282Z,3.40
2018-05-14T21:23:52.059Z,3.65
2018-05-14T21:26:19.538Z,3.60
2018-05-14T21:28:47.751Z,3.58
2018-05-14T21:31:15.248Z,4.15
2018-05-14T21:33:42.673Z,3.72
2018-05-14T21:36:10.128Z,3.90
2018-05-14T21:38:37.604Z,3.67
2018-05-14T21:41:05.809Z,4.20
2018-05-14T21:43:34.033Z,4.35
2018-05-14T21:46:01.487Z,4.20
2018-05-14T21:48:28.938Z,3.97
2018-05-14T21:50:56.410Z,4.05
2018-05-14T21:53:23.899Z,3.53
2018-05-14T21:55:51.346Z,4.10
2018-05-14T21:58:18.797Z,3.80
2018-05-14T22:00:46.263Z,4.05
2018-05-14T22:03:13.716Z,3.33
2018-05-14T22:05:50.766Z,4.10
2018-05-14T22:08:18.221Z,4.18
2018-05-14T22:10:45.712Z,3.22
2018-05-14T22:13:13.141Z,4.50
2018-05-14T22:15:40.574Z,4.40
2018-05-14T22:18:08.026Z,3.70
2018-05-14T22:20:35.495Z,4.00
2018-05-14T22:23:02.947Z,4.43
2018-05-14T22:25:31.175Z,4.10
2018-05-14T22:27:58.612Z,4.00
2018-05-14T22:30:26.086Z,4.18
2018-05-14T22:32:53.530Z,4.10
2018-05-14T22:35:20.960Z,4.05
2018-05-14T22:37:48.430Z,3.40
2018-05-14T22:40:15.867Z,4.15
2018-05-14T22:42:43.329Z,3.78
2018-05-14T22:45:10.798Z,4.32
2018-05-14T22:47:38.263Z,3.75
2018-05-14T22:50:05.716Z,3.80
2018-05-14T22:52:33.184Z,3.87
2018-05-14T22:55:00.641Z,3.60
2018-05-14T22:57:28.098Z,3.75
2018-05-14T22:59:55.574Z,3.85
2018-05-14T23:02:23.024Z,3.53
2018-05-14T23:04:50.492Z,3.87
2018-05-14T23:07:17.962Z,4.62
2018-05-14T23:09:46.187Z,3.47
2018-05-14T23:12:13.636Z,4.35
2018-05-14T23:14:41.086Z,3.65
2018-05-14T23:17:08.549Z,4.37
2018-05-14T23:19:35.990Z,4.00
2018-05-14T23:22:03.450Z,4.12
2018-05-14T23:24:30.921Z,3.72
2018-05-14T23:26:58.373Z,4.12
2018-05-14T23:29:25.823Z,4.35
2018-05-14T23:31:53.262Z,3.90
2018-05-14T23:34:20.714Z,3.90
2018-05-14T23:36:48.927Z,4.35
2018-05-14T23:39:16.379Z,4.00
2018-05-14T23:41:43.831Z,3.70
2018-05-14T23:44:11.287Z,4.22
2018-05-14T23:46:38.734Z,3.95
2018-05-14T23:49:06.194Z,4.43
2018-05-14T23:51:33.650Z,4.00
2018-05-14T23:54:01.111Z,3.83
2018-05-14T23:56:28.568Z,3.95
2018-05-14T23:58:56.026Z,4.20
